world map with DTTD marked

DTTD - Airport

This information may not be accurate or current and is not valid for navigation or flight planning. No warranty of fitness for any purpose is made or implied.

flag of Tunisia

Donate via PayPal

Additional information is available on the NEW Great Circle Mapper

Location
City:  Remada, Tunisia
Name:Remada AB
ICAO:DTTD

Details
Type:Airport (Aerodrome, Airfield)
Use:Military
Latitude:32°18'22"N (32.306156)
Longitude:10°22'56"E (10.382108)
Datum:WGS 1984
Elevation:1004 ft (306 m)
Runways:1
Longest:7812 × 148 ft (2381 × 45 m)

Time
Timezone:UTC+1 (DST+3)
Local Time:

Weather
METAR:DTTD  041400Z AUTO 32018G29KT NCD 10/M01 Q1014

Related Locations
Nearby:
Farthest:NZJP: 11651 mi / 18750 km
Te Puia Springs [Hospital Heliport], GIS, NZ

Find:

   beyond  
but within

Other Information
Maps:
Sources:

  


 


Great Circle Mapper   Great Circle Mapper
Great Circle Mapper FAQ   Great Circle Mapper FAQ
  Karl's Home Page
KLSē   KLSē Home
   GC on Facebook
Airlines of the World   Airlines of the World
Donate via PayPal


Copyright © 2004-2019, Karl L. Swartz. All rights reserved.
All trademarks mentioned herein belong to their respective owners.

Please see credits for attribution and copyright information.

Karl Swartz <karl@kls2.com>
  Powered by FreeBSD
Valid HTML 4.01!
Labeled with ICRA
hCard Microformat
Geo Microformat